Date,TemperatureHighF,TemperatureAvgF,TemperatureLowF,DewpointHighF,DewpointAvgF,DewpointLowF,HumidityHigh,HumidityAvg,HumidityLow,PressureMaxIn,PressureMinIn,WindSpeedMaxMPH,WindSpeedAvgMPH,GustSpeedMaxMPH,PrecipitationSumIn
2013-2-8,24,20,6,21,16,3,90,82,73,30.37,30.13,7,1,11,0.00
2013-2-9,31,27,23,30,25,21,99,94,88,30.13,29.85,0,0,0,0.00
2013-2-10,29,27,25,29,26,25,99,97,92,29.85,29.32,0,0,0,0.00
2013-2-11,26,20,12,25,16,9,95,84,75,30.06,29.44,0,0,0,0.00
2013-2-12,29,20,10,19,15,7,89,81,66,30.06,29.81,0,0,0,0.00
2013-2-13,34,26,15,31,23,13,100,89,70,29.81,29.56,0,0,0,1.06
2013-2-14,31,19,4,31,13,-2,100,77,45,30.26,29.63,9,1,10,0.00
2013-2-15,16,6,0,4,0,-4,86,76,51,30.39,30.25,9,4,11,0.00
2013-2-16,12,10,7,6,4,3,87,80,71,30.31,30.10,6,2,11,0.00
2013-2-17,31,20,8,25,16,4,89,82,77,30.10,29.53,13,3,24,0.00
2013-2-18,30,15,-2,29,10,-8,96,80,70,29.98,29.49,14,4,22,0.00
2013-2-19,-1,-5,-9,-7,-13,-16,74,68,62,30.50,29.99,13,8,17,0.00
2013-2-20,10,0,-16,-1,-9,-22,76,67,56,30.57,30.42,6,1,8,0.00
2013-2-21,19,13,4,13,4,-3,79,66,58,30.47,30.11,6,2,9,0.00
2013-2-22,24,20,13,18,16,10,91,84,76,30.11,29.90,0,0,0,7.50
2013-2-23,28,17,6,18,13,3,91,84,67,29.97,29.87,0,0,0,0.02
2013-2-24,27,14,1,18,8,-3,89,78,61,30.12,29.97,0,0,0,0.01
2013-2-25,28,20,9,24,17,6,94,89,79,30.14,30.05,5,0,6,0.01
2013-2-26,28,22,16,25,19,14,96,89,77,30.07,29.95,10,3,13,3.87
2013-2-27,35,25,20,22,17,14,80,71,54,30.09,29.94,13,9,17,0.00
2013-2-28,27,24,17,20,18,13,83,77,68,30.26,30.09,8,3,13,0.00